Time;durP1;ratioP1;P1;durP2;ratioP2;P2;SDS_P1;SDS_P2;PMS_P1;PMS_P2;Temp;Humidity;BMP_temperature;BMP_pressure;BME280_temperature;BME280_humidity;BME280_pressure;Samples;Min_cycle;Max_cycle;Signal;HPM_P1;HPM_P2
2022/11/07 00:02:07;;;;;;;4.82;4.20;;;10.00;85.00;;;;;;4997374;28;20034;-62
2022/11/07 00:04:33;;;;;;;4.90;4.32;;;10.00;85.00;;;;;;5002899;28;20125;-62
2022/11/07 00:06:59;;;;;;;5.05;4.03;;;10.10;85.00;;;;;;5002585;28;20037;-60
2022/11/07 00:09:25;;;;;;;4.93;4.07;;;10.10;85.00;;;;;;5001771;28;20030;-61
2022/11/07 00:11:50;;;;;;;5.38;3.60;;;10.10;85.00;;;;;;4997146;28;20042;-63
2022/11/07 00:14:17;;;;;;;4.70;4.18;;;10.10;85.00;;;;;;5003840;28;20536;-62
2022/11/07 00:16:44;;;;;;;4.90;3.90;;;10.10;84.90;;;;;;5004372;28;20034;-60
2022/11/07 00:19:10;;;;;;;5.05;4.07;;;10.20;85.00;;;;;;5000062;28;20030;-62
2022/11/07 00:21:38;;;;;;;4.53;4.13;;;10.20;85.10;;;;;;4999191;28;20056;-60
2022/11/07 00:24:04;;;;;;;5.30;4.20;;;10.20;85.30;;;;;;5000744;28;20041;-62
2022/11/07 00:26:30;;;;;;;4.20;3.80;;;10.20;85.20;;;;;;4997538;28;20719;-61
2022/11/07 00:28:55;;;;;;;4.35;3.95;;;10.20;85.10;;;;;;5003745;28;20040;-61
2022/11/07 00:31:21;;;;;;;5.35;3.95;;;10.20;85.10;;;;;;5000109;28;20065;-61
2022/11/07 00:33:47;;;;;;;4.65;4.05;;;10.20;85.20;;;;;;4998183;28;20233;-62
2022/11/07 00:36:18;;;;;;;4.75;4.10;;;10.20;85.20;;;;;;4996680;28;20041;-62
2022/11/07 00:38:44;;;;;;;5.53;3.95;;;10.30;85.30;;;;;;5001964;28;20393;-61
2022/11/07 00:41:10;;;;;;;4.30;3.90;;;10.30;85.30;;;;;;4998999;28;20097;-61
2022/11/07 00:43:35;;;;;;;4.88;4.20;;;10.30;85.30;;;;;;4996743;28;20070;-61
2022/11/07 00:46:03;;;;;;;5.50;4.05;;;10.30;85.30;;;;;;4997156;28;20316;-61
2022/11/07 00:48:29;;;;;;;5.45;4.20;;;10.30;85.20;;;;;;4998173;28;20100;-62
2022/11/07 00:50:55;;;;;;;5.32;4.53;;;10.30;85.20;;;;;;5000250;28;20061;-62
2022/11/07 00:53:21;;;;;;;4.85;3.95;;;10.40;85.20;;;;;;5004722;28;20502;-63
2022/11/07 00:55:47;;;;;;;5.55;4.28;;;10.40;85.00;;;;;;5000064;28;20041;-61
2022/11/07 00:58:12;;;;;;;5.22;4.20;;;10.40;84.80;;;;;;5004063;28;20037;-62
2022/11/07 01:00:38;;;;;;;4.85;3.90;;;10.40;84.60;;;;;;5000169;28;20654;-61
2022/11/07 01:06:00;;;;;;;4.63;3.25;;;10.30;84.30;;;;;;5002345;28;20034;-59
2022/11/07 01:08:26;;;;;;;3.72;3.00;;;10.30;83.90;;;;;;5005951;28;20037;-60
2022/11/07 01:10:52;;;;;;;3.53;3.22;;;10.30;84.00;;;;;;5002490;28;20528;-61
2022/11/07 01:13:17;;;;;;;3.20;2.95;;;10.30;83.90;;;;;;5001168;28;20046;-62
2022/11/07 01:15:43;;;;;;;3.10;2.80;;;10.30;83.80;;;;;;5003678;28;20490;-62
2022/11/07 01:18:09;;;;;;;4.13;3.38;;;10.20;83.80;;;;;;5005600;28;20041;-61
2022/11/07 01:20:35;;;;;;;3.55;2.95;;;10.20;83.80;;;;;;5001092;28;20456;-63
2022/11/07 01:23:01;;;;;;;5.22;3.30;;;10.20;83.90;;;;;;4999719;28;20030;-62
2022/11/07 01:25:27;;;;;;;4.90;3.05;;;10.10;83.80;;;;;;5004014;28;20152;-62
2022/11/07 01:27:52;;;;;;;4.07;3.10;;;10.10;83.90;;;;;;5000151;28;20268;-61
2022/11/07 01:30:18;;;;;;;4.78;3.40;;;10.10;83.90;;;;;;5003031;28;20038;-61
2022/11/07 01:32:43;;;;;;;4.80;3.53;;;10.10;84.00;;;;;;5000896;28;20038;-61
2022/11/07 01:35:09;;;;;;;3.97;3.58;;;10.00;84.00;;;;;;4998785;28;20157;-62
2022/11/07 01:37:34;;;;;;;3.45;3.10;;;10.00;84.00;;;;;;4998867;28;20180;-60
2022/11/07 01:40:00;;;;;;;3.28;2.72;;;10.00;84.00;;;;;;5003675;28;20377;-62
2022/11/07 01:42:26;;;;;;;3.55;3.25;;;10.00;84.10;;;;;;4998444;28;20087;-61
2022/11/07 01:44:55;;;;;;;3.45;3.13;;;9.90;84.10;;;;;;5001488;28;20042;-60
2022/11/07 01:47:24;;;;;;;4.50;3.50;;;9.90;84.10;;;;;;4999672;28;20037;-63
2022/11/07 01:49:52;;;;;;;5.00;3.33;;;9.90;84.00;;;;;;5001956;28;20133;-62
2022/11/07 01:52:25;;;;;;;3.92;3.03;;;9.90;83.90;;;;;;5000781;28;20042;-63
2022/11/07 01:54:55;;;;;;;3.58;3.03;;;9.90;83.80;;;;;;5000812;28;20037;-61
2022/11/07 01:57:50;;;;;;;3.65;3.00;;;9.90;83.80;;;;;;5000510;28;20068;-61
2022/11/07 02:00:18;;;;;;;4.53;3.17;;;9.80;83.50;;;;;;5003508;28;20026;-61
2022/11/07 02:02:47;;;;;;;6.53;3.53;;;9.80;83.70;;;;;;4999202;28;20034;-62
2022/11/07 02:05:23;;;;;;;3.83;3.42;;;9.80;83.90;;;;;;5002926;28;20315;-62
2022/11/07 02:07:49;;;;;;;3.80;3.40;;;9.80;84.00;;;;;;5003287;28;20497;-62
2022/11/07 02:10:15;;;;;;;3.88;3.47;;;9.80;84.10;;;;;;5002994;28;20100;-62
2022/11/07 02:12:41;;;;;;;5.72;3.60;;;9.70;84.10;;;;;;5002114;28;20125;-62
2022/11/07 02:15:08;;;;;;;3.65;3.35;;;9.70;84.10;;;;;;5006623;28;20116;-63
2022/11/07 02:17:34;;;;;;;4.20;3.80;;;9.70;84.10;;;;;;5007001;28;20394;-62
2022/11/07 02:20:00;;;;;;;5.03;4.05;;;9.70;84.10;;;;;;5007314;28;20045;-61
2022/11/07 02:22:37;;;;;;;6.97;4.82;;;9.70;84.10;;;;;;5000047;28;20041;-62
2022/11/07 02:25:07;;;;;;;5.70;4.90;;;9.70;84.20;;;;;;5003716;28;20077;-63
2022/11/07 02:27:35;;;;;;;4.70;4.18;;;9.60;84.10;;;;;;5002233;28;20088;-61
2022/11/07 02:30:05;;;;;;;5.03;4.30;;;9.60;84.20;;;;;;5004075;28;20116;-60
2022/11/07 02:32:31;;;;;;;6.10;3.97;;;9.60;84.30;;;;;;5002043;28;20049;-61
2022/11/07 02:34:57;;;;;;;4.22;3.83;;;9.60;84.40;;;;;;5001904;28;20934;-61
2022/11/07 02:37:28;;;;;;;4.80;4.10;;;9.60;84.50;;;;;;5001791;28;20042;-63
2022/11/07 02:39:53;;;;;;;4.20;3.80;;;9.60;84.30;;;;;;5005321;28;20042;-63
2022/11/07 02:42:19;;;;;;;4.35;3.60;;;9.60;84.30;;;;;;5007602;28;20041;-63
2022/11/07 02:44:46;;;;;;;4.45;3.72;;;9.50;84.30;;;;;;5006658;28;21202;-61
2022/11/07 02:47:12;;;;;;;3.75;3.45;;;9.50;84.30;;;;;;5006664;28;20037;-62
2022/11/07 02:49:38;;;;;;;4.30;3.90;;;9.50;84.30;;;;;;5006379;28;20045;-63
2022/11/07 02:52:03;;;;;;;3.90;3.58;;;9.50;84.30;;;;;;5002615;28;20391;-62
2022/11/07 02:54:29;;;;;;;3.78;3.40;;;9.50;84.10;;;;;;4997204;28;20065;-62
2022/11/07 02:56:54;;;;;;;4.13;3.72;;;9.40;84.10;;;;;;5000917;28;20595;-61
2022/11/07 02:59:20;;;;;;;4.20;3.80;;;9.40;84.20;;;;;;4998495;28;20038;-62
2022/11/07 03:01:45;;;;;;;4.32;3.92;;;9.40;84.50;;;;;;5001099;28;20046;-63
2022/11/07 03:04:11;;;;;;;3.90;3.50;;;9.40;84.70;;;;;;5001629;28;20046;-63
2022/11/07 03:06:36;;;;;;;4.70;3.97;;;9.40;84.90;;;;;;5001752;28;20636;-60
2022/11/07 03:09:02;;;;;;;5.10;4.05;;;9.40;85.00;;;;;;5006983;28;20444;-63
2022/11/07 03:11:28;;;;;;;5.10;3.97;;;9.40;85.00;;;;;;5000029;28;20569;-63
2022/11/07 03:13:55;;;;;;;5.45;4.22;;;9.40;85.00;;;;;;5001755;28;20030;-63
2022/11/07 03:16:21;;;;;;;4.20;3.80;;;9.40;85.10;;;;;;4999033;28;20033;-62
2022/11/07 03:18:46;;;;;;;4.15;3.75;;;9.50;85.20;;;;;;4997442;28;20531;-61
2022/11/07 03:21:13;;;;;;;4.38;3.95;;;9.50;85.20;;;;;;4999173;28;20034;-59
2022/11/07 03:23:38;;;;;;;5.10;3.80;;;9.50;85.20;;;;;;5001735;28;20084;-62
2022/11/07 03:26:04;;;;;;;4.15;3.75;;;9.50;85.20;;;;;;4997956;28;20041;-60
2022/11/07 03:28:31;;;;;;;4.13;3.72;;;9.50;85.20;;;;;;5002257;28;20643;-61
2022/11/07 03:31:01;;;;;;;5.85;3.92;;;9.40;85.30;;;;;;4999514;28;20037;-61
2022/11/07 03:33:27;;;;;;;4.40;4.00;;;9.50;85.50;;;;;;5000757;28;20132;-62
2022/11/07 03:35:53;;;;;;;4.45;3.83;;;9.50;85.60;;;;;;5000908;28;20026;-62
2022/11/07 03:38:19;;;;;;;4.30;3.90;;;9.50;85.70;;;;;;5003845;28;20030;-62
2022/11/07 03:40:45;;;;;;;4.20;3.80;;;9.50;85.70;;;;;;4997929;28;20065;-61
2022/11/07 03:43:11;;;;;;;4.63;4.22;;;9.50;85.70;;;;;;5000542;28;20641;-62
2022/11/07 03:45:36;;;;;;;5.60;4.30;;;9.50;85.70;;;;;;4996656;28;20060;-60
2022/11/07 03:48:02;;;;;;;4.57;4.15;;;9.50;85.70;;;;;;4999583;28;20065;-60
2022/11/07 03:50:28;;;;;;;6.15;4.22;;;9.50;85.70;;;;;;4999572;28;20127;-62
2022/11/07 03:52:53;;;;;;;4.97;4.00;;;9.60;85.70;;;;;;4998907;28;20042;-62
2022/11/07 03:55:19;;;;;;;4.75;4.20;;;9.50;85.70;;;;;;5000510;28;20404;-61
2022/11/07 03:57:45;;;;;;;4.63;4.20;;;9.50;85.60;;;;;;4997277;28;20488;-60
2022/11/07 04:00:12;;;;;;;4.60;4.20;;;9.50;85.50;;;;;;4998961;28;20042;-60
2022/11/07 04:02:37;;;;;;;6.03;3.90;;;9.50;84.90;;;;;;4998242;28;20405;-60
2022/11/07 04:05:03;;;;;;;4.40;4.00;;;9.40;84.20;;;;;;5003116;28;20037;-62
2022/11/07 04:07:29;;;;;;;4.53;4.05;;;9.30;84.30;;;;;;4999064;28;20085;-62
2022/11/07 04:09:54;;;;;;;18.33;9.65;;;9.20;84.40;;;;;;4999470;28;20040;-63
2022/11/07 04:17:48;;;;;;;17.85;11.70;;;9.10;85.00;;;;;;5004301;28;20045;-60
2022/11/07 04:20:14;;;;;;;16.38;10.95;;;9.00;85.00;;;;;;5004756;28;20034;-62
2022/11/07 04:22:40;;;;;;;13.73;8.82;;;9.10;85.00;;;;;;5001138;28;20041;-61
2022/11/07 04:25:06;;;;;;;8.43;5.97;;;9.00;85.00;;;;;;5002935;28;20035;-61
2022/11/07 04:27:43;;;;;;;6.50;5.28;;;9.00;85.10;;;;;;4994495;28;20486;-62
2022/11/07 04:30:26;;;;;;;6.05;5.35;;;9.00;85.30;;;;;;5000715;28;20068;-61
2022/11/07 04:33:01;;;;;;;4.80;4.25;;;9.00;85.30;;;;;;4999514;28;20057;-61
2022/11/07 04:35:29;;;;;;;4.05;3.70;;;9.00;85.50;;;;;;5000496;28;21269;-61
2022/11/07 04:37:55;;;;;;;5.00;3.70;;;9.00;85.50;;;;;;4997513;28;20034;-62
2022/11/07 04:40:21;;;;;;;4.10;3.67;;;9.00;85.70;;;;;;4998283;28;20064;-63
2022/11/07 04:42:47;;;;;;;3.78;3.45;;;9.00;85.90;;;;;;4998117;28;20145;-62
2022/11/07 04:45:13;;;;;;;3.88;3.55;;;9.00;85.90;;;;;;4999236;28;20506;-62
2022/11/07 04:47:40;;;;;;;3.83;3.42;;;9.00;86.00;;;;;;4998149;28;20056;-62
2022/11/07 04:50:08;;;;;;;4.55;3.80;;;9.00;85.90;;;;;;4999050;28;20084;-63
2022/11/07 04:52:34;;;;;;;4.68;3.83;;;9.00;85.90;;;;;;4996260;28;20038;-62
2022/11/07 04:55:00;;;;;;;4.00;3.70;;;9.00;85.80;;;;;;5001868;28;20038;-62
2022/11/07 04:57:25;;;;;;;6.15;4.07;;;9.00;85.80;;;;;;4997546;28;20387;-63
2022/11/07 04:59:51;;;;;;;3.95;3.55;;;9.00;85.70;;;;;;4997978;28;20040;-60
2022/11/07 05:02:16;;;;;;;4.00;3.63;;;9.00;85.70;;;;;;5000404;28;20045;-61
2022/11/07 05:04:42;;;;;;;4.40;4.00;;;9.00;85.90;;;;;;4996447;28;20030;-61
2022/11/07 05:07:08;;;;;;;4.43;3.92;;;9.00;86.00;;;;;;5000880;28;20538;-61
2022/11/07 05:09:35;;;;;;;5.47;3.97;;;9.00;86.10;;;;;;5002166;28;20075;-62
2022/11/07 05:12:01;;;;;;;4.00;3.60;;;9.10;86.20;;;;;;4997227;28;20212;-62
2022/11/07 05:14:29;;;;;;;4.57;3.35;;;9.10;86.10;;;;;;4996208;28;20073;-62
2022/11/07 05:16:55;;;;;;;4.78;3.25;;;9.10;86.00;;;;;;4999229;28;20038;-60
2022/11/07 05:19:21;;;;;;;4.18;3.40;;;9.20;86.00;;;;;;5000949;28;20042;-62
2022/11/07 05:23:10;;;;;;;3.65;3.33;;;9.20;85.90;;;;;;5000139;28;20042;-63
2022/11/07 05:24:32;;;;;;;3.92;3.55;;;9.30;85.70;;;;;;4998648;28;20046;-62
2022/11/07 05:26:58;;;;;;;6.43;4.57;;;9.30;85.50;;;;;;4997164;28;20037;-61
2022/11/07 05:29:24;;;;;;;5.03;4.10;;;9.30;85.30;;;;;;4998132;28;20585;-62
2022/11/07 05:31:49;;;;;;;3.95;3.55;;;9.30;85.30;;;;;;4999124;28;20040;-62
2022/11/07 05:34:15;;;;;;;4.00;3.60;;;9.20;85.20;;;;;;4995672;28;20049;-62
2022/11/07 05:36:40;;;;;;;4.32;3.92;;;9.20;85.20;;;;;;4998278;28;20034;-61
2022/11/07 05:39:06;;;;;;;4.32;3.90;;;9.20;85.00;;;;;;5004357;28;20070;-60
2022/11/07 05:41:34;;;;;;;3.75;3.45;;;9.20;85.20;;;;;;5005343;28;20038;-62
2022/11/07 05:43:59;;;;;;;3.80;3.50;;;9.20;85.20;;;;;;5008549;28;20030;-62
2022/11/07 05:46:25;;;;;;;4.78;3.30;;;9.20;85.20;;;;;;5006437;28;20053;-61
2022/11/07 05:48:50;;;;;;;4.45;3.28;;;9.20;85.20;;;;;;5006658;28;20406;-61
2022/11/07 05:51:16;;;;;;;6.63;4.78;;;9.20;85.10;;;;;;5006102;28;20041;-61
2022/11/07 05:53:41;;;;;;;5.25;3.80;;;9.20;85.20;;;;;;5006861;28;20132;-61
2022/11/07 05:56:07;;;;;;;6.35;4.10;;;9.20;85.20;;;;;;5007663;28;20406;-61
2022/11/07 05:58:33;;;;;;;4.82;3.90;;;9.30;85.30;;;;;;5006008;28;20052;-62
2022/11/07 06:01:05;;;;;;;5.85;4.30;;;9.30;85.20;;;;;;5004318;28;20037;-62
2022/11/07 06:03:31;;;;;;;5.28;4.10;;;9.30;85.20;;;;;;5008946;28;20121;-61
2022/11/07 06:05:57;;;;;;;4.20;3.25;;;9.30;85.30;;;;;;5009428;28;20100;-61
2022/11/07 06:08:23;;;;;;;3.50;3.20;;;9.30;85.30;;;;;;5009539;28;20027;-61
2022/11/07 06:10:49;;;;;;;6.70;3.40;;;9.30;85.40;;;;;;5004212;28;20074;-62
2022/11/07 06:13:15;;;;;;;4.35;2.97;;;9.30;85.40;;;;;;5009253;28;20034;-63
2022/11/07 06:15:42;;;;;;;3.78;3.20;;;9.30;85.30;;;;;;5009680;28;20042;-62
2022/11/07 06:18:17;;;;;;;6.50;3.30;;;9.30;85.30;;;;;;5009126;28;20040;-63
2022/11/07 06:20:43;;;;;;;3.25;2.80;;;9.40;85.30;;;;;;5007553;28;20046;-63
2022/11/07 06:23:08;;;;;;;3.13;2.88;;;9.40;85.30;;;;;;5009219;28;20038;-62
2022/11/07 06:25:35;;;;;;;2.97;2.78;;;9.40;85.30;;;;;;5008995;28;20518;-61
2022/11/07 06:28:09;;;;;;;3.05;2.72;;;9.40;85.40;;;;;;5008698;28;20126;-62
2022/11/07 06:30:35;;;;;;;4.70;4.10;;;9.40;85.30;;;;;;5008238;28;20038;-62
2022/11/07 06:33:10;;;;;;;4.32;3.85;;;9.50;85.40;;;;;;5008463;28;20069;-62
2022/11/07 06:35:35;;;;;;;;;;;9.50;85.30;;;;;;5009150;28;20088;-60
2022/11/07 06:38:03;;;;;;;5.47;3.53;;;9.50;86.20;;;;;;5008899;28;20332;-61
2022/11/07 06:40:29;;;;;;;4.35;3.88;;;9.50;84.90;;;;;;5007791;28;20046;-61
2022/11/07 06:42:55;;;;;;;4.40;4.00;;;9.50;84.70;;;;;;5009132;28;20042;-61
2022/11/07 06:45:21;;;;;;;4.60;4.00;;;9.50;84.50;;;;;;5008683;28;20142;-62
2022/11/07 06:47:46;;;;;;;4.78;3.95;;;9.40;84.30;;;;;;5008178;28;20435;-63
2022/11/07 06:50:12;;;;;;;5.30;4.80;;;9.30;84.10;;;;;;5008225;28;20487;-62
2022/11/07 06:52:37;;;;;;;6.07;4.40;;;9.30;84.20;;;;;;5005856;28;20501;-63
2022/11/07 06:55:03;;;;;;;4.38;3.95;;;9.30;84.40;;;;;;5005738;28;20415;-63
2022/11/07 06:57:29;;;;;;;4.95;4.43;;;9.20;84.60;;;;;;5006605;28;20253;-63
2022/11/07 06:59:55;;;;;;;7.35;5.57;;;9.10;84.80;;;;;;5007027;28;20049;-61
2022/11/07 07:02:20;;;;;;;8.63;6.03;;;9.10;85.00;;;;;;5005066;28;20049;-62
2022/11/07 07:04:47;;;;;;;9.10;6.50;;;9.10;85.20;;;;;;5004675;28;20441;-62
2022/11/07 07:07:13;;;;;;;6.88;5.32;;;9.10;85.20;;;;;;5006014;28;20559;-61
2022/11/07 07:09:38;;;;;;;5.30;4.80;;;9.20;85.30;;;;;;5007226;28;20409;-62
2022/11/07 07:12:04;;;;;;;8.95;5.30;;;9.20;85.30;;;;;;5001171;28;20503;-62
2022/11/07 07:14:30;;;;;;;5.90;4.90;;;9.20;85.30;;;;;;5004023;28;20038;-62
2022/11/07 07:16:57;;;;;;;5.78;4.85;;;9.20;85.30;;;;;;5006427;28;20061;-60
2022/11/07 07:19:23;;;;;;;5.80;5.00;;;9.30;85.30;;;;;;5004434;28;20038;-61
2022/11/07 07:21:49;;;;;;;4.93;4.43;;;9.30;85.30;;;;;;5004852;28;20078;-61
2022/11/07 07:24:14;;;;;;;6.57;4.50;;;9.30;85.50;;;;;;5004574;28;20390;-61
2022/11/07 07:26:40;;;;;;;5.90;4.80;;;9.30;85.70;;;;;;5004616;28;20041;-62
2022/11/07 07:29:05;;;;;;;8.07;5.10;;;9.30;85.80;;;;;;5004738;28;20580;-62
2022/11/07 07:31:31;;;;;;;6.85;4.75;;;9.30;86.00;;;;;;5006134;28;20040;-61
2022/11/07 07:33:57;;;;;;;7.05;5.30;;;9.40;86.00;;;;;;5012697;28;20065;-61
2022/11/07 07:36:24;;;;;;;9.65;5.50;;;9.40;86.10;;;;;;5005094;28;20113;-61
2022/11/07 07:38:50;;;;;;;10.10;6.50;;;9.40;86.20;;;;;;5005587;28;20032;-62
2022/11/07 07:41:16;;;;;;;7.40;5.65;;;9.50;86.40;;;;;;5004813;28;20034;-61
2022/11/07 07:43:42;;;;;;;8.77;5.20;;;9.50;86.40;;;;;;5004241;28;20030;-61
2022/11/07 07:46:12;;;;;;;6.60;4.82;;;9.60;86.60;;;;;;5005646;28;20034;-62
2022/11/07 07:48:38;;;;;;;4.68;3.58;;;9.60;86.80;;;;;;5004714;28;20037;-60
2022/11/07 07:51:03;;;;;;;7.07;4.55;;;9.70;87.10;;;;;;5002325;28;20038;-61
2022/11/07 07:53:29;;;;;;;13.27;7.22;;;9.80;87.30;;;;;;5004629;28;20406;-62
2022/11/07 07:55:57;;;;;;;16.98;9.55;;;9.80;87.30;;;;;;5005871;28;20041;-62
2022/11/07 07:58:23;;;;;;;10.02;5.65;;;10.00;87.50;;;;;;5004514;28;20038;-62
2022/11/07 08:00:51;;;;;;;5.13;3.33;;;10.00;87.50;;;;;;5002755;28;20528;-62
2022/11/07 08:03:17;;;;;;;7.00;3.65;;;10.10;87.50;;;;;;5005701;28;20049;-61
2022/11/07 08:05:43;;;;;;;4.95;3.28;;;10.20;87.40;;;;;;5004094;28;20042;-62
2022/11/07 08:08:08;;;;;;;6.20;4.03;;;10.30;87.30;;;;;;5005886;28;20035;-61
2022/11/07 08:10:34;;;;;;;4.47;2.88;;;10.40;87.20;;;;;;5001619;28;20379;-60
2022/11/07 08:13:00;;;;;;;7.10;3.58;;;10.60;87.50;;;;;;5003920;28;20048;-60
2022/11/07 08:15:27;;;;;;;5.65;3.05;;;10.60;86.70;;;;;;5006164;28;20129;-62
2022/11/07 08:17:52;;;;;;;6.35;2.45;;;10.80;86.60;;;;;;5007011;28;20570;-63
2022/11/07 08:20:19;;;;;;;6.25;3.95;;;10.90;86.50;;;;;;5004830;28;20037;-61
2022/11/07 08:22:45;;;;;;;3.65;2.70;;;11.00;86.20;;;;;;5002283;28;20044;-62
2022/11/07 08:25:11;;;;;;;5.00;2.90;;;11.10;86.00;;;;;;5018694;28;20033;-62
2022/11/07 08:27:37;;;;;;;5.03;3.08;;;11.20;85.90;;;;;;5001823;28;20686;-61
2022/11/07 08:30:06;;;;;;;2.42;2.17;;;11.30;85.70;;;;;;5004519;28;20073;-62
2022/11/07 08:32:32;;;;;;;4.45;2.80;;;11.40;85.50;;;;;;5002704;28;20561;-62
2022/11/07 08:34:57;;;;;;;5.45;3.03;;;11.40;85.30;;;;;;5005375;28;20042;-61
2022/11/07 08:37:23;;;;;;;4.18;2.28;;;11.60;85.20;;;;;;5002771;28;20034;-62
2022/11/07 08:39:49;;;;;;;13.23;7.05;;;11.60;84.80;;;;;;5005450;28;20164;-61
2022/11/07 08:42:14;;;;;;;3.65;2.60;;;11.70;84.80;;;;;;5003468;28;20490;-62
2022/11/07 08:44:40;;;;;;;3.13;1.80;;;11.80;84.50;;;;;;5004311;28;20054;-61
2022/11/07 08:47:05;;;;;;;5.50;2.97;;;11.80;85.10;;;;;;5005397;28;20587;-61
2022/11/07 08:49:31;;;;;;;6.22;2.70;;;11.90;84.10;;;;;;5006751;28;20125;-63
2022/11/07 08:51:57;;;;;;;6.95;3.95;;;12.00;83.80;;;;;;5005597;28;20030;-61
2022/11/07 08:54:24;;;;;;;10.85;3.67;;;12.10;83.60;;;;;;5006987;28;20568;-62
2022/11/07 08:56:50;;;;;;;3.92;2.42;;;12.10;83.60;;;;;;5006563;28;20034;-63
2022/11/07 08:59:16;;;;;;;6.07;2.70;;;12.20;83.50;;;;;;5006535;28;20175;-60
2022/11/07 09:01:42;;;;;;;4.95;2.20;;;12.30;83.30;;;;;;5003029;28;20262;-61
2022/11/07 09:04:08;;;;;;;2.78;1.80;;;12.30;83.10;;;;;;5006379;28;20536;-61
2022/11/07 09:06:33;;;;;;;4.05;1.77;;;12.40;83.10;;;;;;5007271;28;20409;-61
2022/11/07 09:09:00;;;;;;;6.00;3.05;;;12.40;82.90;;;;;;5007538;28;20042;-62
2022/11/07 09:11:25;;;;;;;10.88;4.40;;;12.50;82.70;;;;;;5008975;28;20033;-61
2022/11/07 09:13:52;;;;;;;12.95;5.00;;;12.50;82.70;;;;;;5010882;28;20026;-61
2022/11/07 09:16:19;;;;;;;8.32;2.65;;;12.60;82.50;;;;;;5011366;28;20130;-62
2022/11/07 09:18:46;;;;;;;8.85;3.28;;;12.60;82.20;;;;;;5010630;28;21833;-61
2022/11/07 09:21:12;;;;;;;4.28;2.05;;;12.70;82.20;;;;;;5011186;28;20037;-62
2022/11/07 09:23:38;;;;;;;3.20;2.20;;;12.70;82.00;;;;;;5010848;28;20041;-61
2022/11/07 09:26:04;;;;;;;1.73;1.63;;;12.80;81.90;;;;;;5011060;28;20060;-62
2022/11/07 09:28:30;;;;;;;3.80;1.98;;;12.90;81.50;;;;;;5009191;28;20037;-62
2022/11/07 09:30:58;;;;;;;3.10;1.77;;;12.90;81.10;;;;;;5010793;28;20081;-62
2022/11/07 09:33:24;;;;;;;1.98;1.67;;;13.00;81.10;;;;;;5009941;28;20042;-62
2022/11/07 09:35:50;;;;;;;3.25;1.70;;;13.00;80.90;;;;;;5010669;28;20032;-61
2022/11/07 09:38:16;;;;;;;1.92;1.48;;;13.00;80.80;;;;;;5010013;28;20493;-61
2022/11/07 09:40:46;;;;;;;3.15;1.45;;;13.10;81.00;;;;;;5010483;28;20091;-62
2022/11/07 09:43:18;;;;;;;2.47;1.60;;;13.10;80.10;;;;;;5010378;28;20033;-61
2022/11/07 09:45:58;;;;;;;2.58;1.27;;;13.10;79.90;;;;;;5009818;28;20050;-61
2022/11/07 09:48:28;;;;;;;2.97;1.50;;;13.20;79.60;;;;;;5006263;28;20509;-61
2022/11/07 09:50:54;;;;;;;4.82;1.30;;;13.20;80.00;;;;;;5007949;28;20030;-61
2022/11/07 09:53:32;;;;;;;2.53;1.33;;;13.30;80.00;;;;;;5008375;28;20034;-61
2022/11/07 09:56:03;;;;;;;1.80;1.20;;;13.30;79.90;;;;;;5008013;28;20045;-61
2022/11/07 09:58:36;;;;;;;2.20;1.50;;;13.30;79.40;;;;;;5008566;28;20128;-63
2022/11/07 10:01:10;;;;;;;2.58;1.40;;;13.40;78.90;;;;;;5007453;28;20038;-61
2022/11/07 10:03:37;;;;;;;1.57;1.20;;;13.40;78.90;;;;;;5007982;28;20042;-61
2022/11/07 10:06:14;;;;;;;3.10;1.42;;;13.50;79.20;;;;;;5007291;28;20776;-61
2022/11/07 10:09:20;;;;;;;5.57;1.92;;;13.50;78.60;;;;;;5006540;28;20034;-63
2022/11/07 10:12:15;;;;;;;4.95;2.63;;;13.50;78.60;;;;;;4962430;28;20085;-62
2022/11/07 10:14:43;;;;;;;3.05;1.63;;;13.60;78.60;;;;;;5000344;28;20125;-61
2022/11/07 10:17:17;;;;;;;2.00;1.33;;;13.60;78.70;;;;;;5010241;28;20041;-63
2022/11/07 10:20:18;;;;;;;2.08;1.30;;;13.70;78.50;;;;;;5010469;28;20401;-63
2022/11/07 10:22:53;;;;;;;3.15;1.50;;;13.70;78.20;;;;;;5004240;28;20030;-62
2022/11/07 10:25:42;;;;;;;5.70;1.45;;;13.70;78.20;;;;;;5008697;28;20050;-62
2022/11/07 10:28:16;;;;;;;1.63;1.33;;;13.80;78.80;;;;;;5004520;28;20037;-63
2022/11/07 10:30:46;;;;;;;3.05;1.48;;;13.80;78.60;;;;;;5005928;28;20449;-61
2022/11/07 10:33:57;;;;;;;2.03;1.20;;;13.90;78.90;;;;;;5007864;28;20033;-63
2022/11/07 10:36:25;;;;;;;2.00;1.13;;;13.90;78.10;;;;;;5004174;28;20414;-63
2022/11/07 10:38:51;;;;;;;1.85;1.08;;;14.00;78.70;;;;;;5007125;28;20038;-64
2022/11/07 10:41:18;;;;;;;2.20;1.20;;;14.10;78.70;;;;;;5008107;28;20409;-63
2022/11/07 10:43:48;;;;;;;2.60;1.10;;;14.10;78.40;;;;;;5007900;28;20042;-63
2022/11/07 10:46:42;;;;;;;1.67;1.02;;;14.10;78.20;;;;;;5006982;28;20560;-63
2022/11/07 10:49:18;;;;;;;3.58;1.00;;;14.20;76.80;;;;;;4998867;28;20429;-63
2022/11/07 10:51:43;;;;;;;2.22;0.60;;;14.30;77.30;;;;;;5004380;28;20502;-63
2022/11/07 10:54:28;;;;;;;4.03;1.17;;;14.30;77.90;;;;;;5007974;28;20073;-61
2022/11/07 10:57:07;;;;;;;5.70;2.92;;;14.40;75.40;;;;;;5006282;28;20072;-63
2022/11/07 10:59:36;;;;;;;8.13;3.33;;;14.40;76.50;;;;;;5006913;28;20038;-64
2022/11/07 11:02:12;;;;;;;2.50;1.50;;;14.50;77.10;;;;;;5005406;28;20037;-62
2022/11/07 11:04:49;;;;;;;5.75;2.10;;;14.50;76.90;;;;;;5004971;28;20045;-63
2022/11/07 11:07:15;;;;;;;2.05;0.93;;;14.60;76.10;;;;;;5006014;28;20068;-62
2022/11/07 11:09:52;;;;;;;1.00;0.60;;;14.70;76.30;;;;;;5006598;28;20034;-62
2022/11/07 11:12:29;;;;;;;1.55;0.70;;;14.70;75.30;;;;;;5000022;28;20040;-63
2022/11/07 11:15:11;;;;;;;1.80;0.60;;;14.80;75.80;;;;;;5006636;28;20030;-62
2022/11/07 11:17:37;;;;;;;2.47;0.40;;;14.80;74.70;;;;;;5006468;28;20065;-61
2022/11/07 11:20:04;;;;;;;1.58;0.80;;;14.90;75.30;;;;;;5005930;28;20050;-63
2022/11/07 11:22:30;;;;;;;2.85;0.82;;;14.90;75.10;;;;;;5006437;28;20116;-63
2022/11/07 11:25:19;;;;;;;1.63;0.70;;;15.00;74.90;;;;;;5005023;28;20525;-62
2022/11/07 11:27:50;;;;;;;3.80;1.33;;;15.00;74.00;;;;;;5005460;28;20509;-63
2022/11/07 11:30:18;;;;;;;2.53;0.55;;;15.00;73.80;;;;;;5006248;28;20135;-63
2022/11/07 11:32:50;;;;;;;2.40;0.80;;;15.00;74.20;;;;;;5003970;28;20038;-62
2022/11/07 11:35:39;;;;;;;4.85;0.90;;;15.10;73.80;;;;;;5005113;28;20425;-62
2022/11/07 11:38:13;;;;;;;2.97;0.65;;;15.10;73.80;;;;;;5007142;28;20030;-63
2022/11/07 11:40:43;;;;;;;1.95;0.77;;;15.20;72.80;;;;;;5006614;28;20033;-62
2022/11/07 11:43:44;;;;;;;3.83;0.77;;;15.10;73.30;;;;;;5004228;28;20033;-62
2022/11/07 11:46:27;;;;;;;0.93;0.40;;;15.20;72.50;;;;;;4998739;28;20030;-63
2022/11/07 11:48:59;;;;;;;2.92;0.75;;;15.20;72.60;;;;;;5005996;28;20045;-62
2022/11/07 11:51:55;;;;;;;2.35;0.50;;;15.20;73.30;;;;;;5005051;28;20084;-63
2022/11/07 11:54:20;;;;;;;;;;;15.20;72.70;;;;;;5006026;28;20033;-62
2022/11/07 11:56:50;;;;;;;1.80;0.52;;;15.30;73.50;;;;;;5003000;28;19914;-64
2022/11/07 11:59:37;;;;;;;2.95;0.63;;;15.30;73.50;;;;;;5006953;28;20030;-62
2022/11/07 12:02:47;;;;;;;1.85;0.50;;;15.30;73.30;;;;;;5005772;28;20034;-63
2022/11/07 12:05:27;;;;;;;2.65;0.85;;;15.30;72.50;;;;;;5004728;28;20742;-62
2022/11/07 12:07:56;;;;;;;3.85;0.75;;;15.30;72.50;;;;;;5004929;28;20117;-63
2022/11/07 12:10:48;;;;;;;2.40;0.60;;;15.30;73.00;;;;;;5003588;28;20034;-63
2022/11/07 12:13:20;;;;;;;2.63;0.73;;;15.30;72.30;;;;;;5006521;28;20074;-62
2022/11/07 12:16:11;;;;;;;1.80;0.60;;;15.40;72.40;;;;;;5008092;28;20033;-63
2022/11/07 12:18:52;;;;;;;0.82;0.70;;;15.40;72.10;;;;;;4988403;28;20133;-64
2022/11/07 12:21:35;;;;;;;1.60;0.50;;;15.40;72.60;;;;;;5005262;28;20034;-64
2022/11/07 12:24:24;;;;;;;1.48;0.70;;;15.50;72.30;;;;;;5005337;28;20030;-62
2022/11/07 12:27:27;;;;;;;1.38;0.60;;;15.50;72.60;;;;;;5005879;28;20091;-64
2022/11/07 12:30:14;;;;;;;2.25;0.75;;;15.60;70.90;;;;;;5006119;28;20045;-64
2022/11/07 12:32:51;;;;;;;1.35;0.50;;;15.60;70.90;;;;;;5003870;28;20045;-64
2022/11/07 12:35:41;;;;;;;1.33;0.63;;;15.60;71.70;;;;;;5004595;28;20058;-63
2022/11/07 12:38:25;;;;;;;1.40;1.30;;;15.60;71.00;;;;;;5005432;28;20130;-64
2022/11/07 12:41:05;;;;;;;2.03;1.25;;;15.70;71.10;;;;;;5005000;28;20044;-63
2022/11/07 12:43:57;;;;;;;2.17;1.48;;;15.60;71.30;;;;;;5005913;28;20160;-62
2022/11/07 12:46:32;;;;;;;2.92;1.30;;;15.70;71.30;;;;;;5007759;28;20034;-63
2022/11/07 12:49:16;;;;;;;2.35;1.55;;;15.70;71.20;;;;;;5009318;28;20040;-63
2022/11/07 12:51:56;;;;;;;1.85;1.30;;;15.70;71.80;;;;;;5007667;28;20057;-64
2022/11/07 12:54:34;;;;;;;2.28;1.10;;;15.70;71.00;;;;;;5007811;28;20038;-62
2022/11/07 12:57:04;;;;;;;4.25;1.23;;;15.70;71.00;;;;;;5009083;28;20494;-61
2022/11/07 12:59:31;;;;;;;3.35;0.82;;;15.70;71.00;;;;;;5007815;28;20037;-63
2022/11/07 13:02:18;;;;;;;1.50;0.70;;;15.80;70.90;;;;;;5008693;28;20037;-62
2022/11/07 13:04:47;;;;;;;1.63;0.70;;;15.70;70.50;;;;;;5007242;28;20050;-62
2022/11/07 13:07:32;;;;;;;4.18;1.20;;;15.80;71.10;;;;;;5008145;28;20066;-63
2022/11/07 13:10:19;;;;;;;2.63;0.88;;;15.80;69.90;;;;;;5008851;28;20042;-62
2022/11/07 13:12:59;;;;;;;2.55;0.70;;;15.80;69.50;;;;;;5002271;28;20532;-61
2022/11/07 13:15:25;;;;;;;1.42;0.80;;;15.90;69.20;;;;;;5006779;28;20092;-63